createdAt,value
2023-02-13T00:00:32.042Z,6.53
2023-02-13T00:02:48.512Z,6.55
2023-02-13T00:05:04.889Z,6.55
2023-02-13T00:07:21.740Z,6.55
2023-02-13T00:09:38.556Z,6.53
2023-02-13T00:11:55.263Z,6.53
2023-02-13T00:14:12.133Z,6.52
2023-02-13T00:16:28.925Z,6.53
2023-02-13T00:18:45.594Z,6.51
2023-02-13T00:21:02.051Z,6.52
2023-02-13T00:23:18.815Z,6.52
2023-02-13T00:25:35.533Z,6.51
2023-02-13T00:27:52.194Z,6.52
2023-02-13T00:30:08.786Z,6.52
2023-02-13T00:32:25.196Z,6.52
2023-02-13T00:34:41.707Z,6.51
2023-02-13T00:36:58.124Z,6.51
2023-02-13T00:39:14.511Z,6.51
2023-02-13T00:41:31.227Z,6.52
2023-02-13T00:43:47.828Z,6.50
2023-02-13T00:46:04.338Z,6.49
2023-02-13T00:48:20.713Z,6.48
2023-02-13T00:50:37.377Z,6.48
2023-02-13T00:52:54.056Z,6.47
2023-02-13T00:55:10.511Z,6.47
2023-02-13T00:57:26.988Z,6.48
2023-02-13T00:59:43.594Z,6.47
2023-02-13T01:02:00.128Z,6.49
2023-02-13T01:04:16.560Z,6.47
2023-02-13T01:06:33.147Z,6.45
2023-02-13T01:08:49.810Z,6.45
2023-02-13T01:11:06.129Z,6.44
2023-02-13T01:13:22.543Z,6.44
2023-02-13T01:15:39.038Z,6.42
2023-02-13T01:17:55.534Z,6.42
2023-02-13T01:20:12.202Z,6.42
2023-02-13T01:22:28.637Z,6.42
2023-02-13T01:24:45.057Z,6.40
2023-02-13T01:27:01.795Z,6.40
2023-02-13T01:29:18.295Z,6.39
2023-02-13T01:31:35.052Z,6.38
2023-02-13T01:33:51.425Z,6.37
2023-02-13T01:36:07.858Z,6.37
2023-02-13T01:38:24.344Z,6.38
2023-02-13T01:40:41.020Z,6.36
2023-02-13T01:42:57.574Z,6.35
2023-02-13T01:45:14.011Z,6.36
2023-02-13T01:47:30.717Z,6.33
2023-02-13T01:49:47.184Z,6.34
2023-02-13T01:52:03.810Z,6.32
2023-02-13T01:54:20.246Z,6.31
2023-02-13T01:56:36.743Z,6.30
2023-02-13T01:58:53.188Z,6.28
2023-02-13T02:01:09.659Z,6.29
2023-02-13T02:03:26.379Z,6.27
2023-02-13T02:05:42.913Z,6.26
2023-02-13T02:08:01.112Z,6.27
2023-02-13T02:10:17.430Z,6.26
2023-02-13T02:12:33.840Z,6.27
2023-02-13T02:14:50.314Z,6.27
2023-02-13T02:17:06.807Z,6.26
2023-02-13T02:19:23.515Z,6.23
2023-02-13T02:21:39.830Z,6.24
2023-02-13T02:23:56.287Z,6.23
2023-02-13T02:26:12.754Z,6.23
2023-02-13T02:28:29.320Z,6.22
2023-02-13T02:30:46.120Z,6.21
2023-02-13T02:33:02.640Z,6.19
2023-02-13T02:35:19.255Z,6.20
2023-02-13T02:37:35.584Z,6.19
2023-02-13T02:39:52.294Z,6.17
2023-02-13T02:42:08.725Z,6.15
2023-02-13T02:44:25.161Z,6.15
2023-02-13T02:46:41.932Z,6.12
2023-02-13T02:48:58.391Z,6.14
2023-02-13T02:51:15.061Z,6.12
2023-02-13T02:53:31.359Z,6.12
2023-02-13T02:55:47.816Z,6.10
2023-02-13T02:58:04.242Z,6.09
2023-02-13T03:00:20.669Z,6.09
2023-02-13T03:02:37.339Z,6.08
2023-02-13T03:04:53.813Z,6.08
2023-02-13T03:07:10.273Z,6.06
2023-02-13T03:09:26.646Z,6.04
2023-02-13T03:11:43.229Z,6.03
2023-02-13T03:13:59.898Z,6.03
2023-02-13T03:16:16.583Z,6.02
2023-02-13T03:18:33.015Z,6.04
2023-02-13T03:20:49.489Z,6.00
2023-02-13T03:23:06.165Z,5.98
2023-02-13T03:25:22.596Z,5.97
2023-02-13T03:27:39.328Z,5.95
2023-02-13T03:29:55.766Z,5.96
2023-02-13T03:32:12.391Z,5.94
2023-02-13T03:34:28.821Z,5.93
2023-02-13T03:36:45.296Z,5.93
2023-02-13T03:39:01.723Z,5.93
2023-02-13T03:41:18.020Z,5.92
2023-02-13T03:43:34.682Z,5.91
2023-02-13T03:45:51.255Z,5.91
2023-02-13T03:48:07.712Z,5.90
2023-02-13T03:50:24.076Z,5.89
2023-02-13T03:52:40.790Z,5.88
2023-02-13T03:54:57.548Z,5.88
2023-02-13T03:57:14.240Z,5.88
2023-02-13T03:59:30.731Z,5.88
2023-02-13T04:01:47.336Z,5.86
2023-02-13T04:04:04.069Z,5.85
2023-02-13T04:06:20.395Z,5.85
2023-02-13T04:08:36.820Z,5.84
2023-02-13T04:10:53.234Z,5.84
2023-02-13T04:13:09.693Z,5.83
2023-02-13T04:15:26.102Z,5.82
2023-02-13T04:17:42.728Z,5.83
2023-02-13T04:19:59.194Z,5.81
2023-02-13T04:22:15.883Z,5.81
2023-02-13T04:24:32.546Z,5.81
2023-02-13T04:29:22.928Z,5.81
2023-02-13T04:31:39.437Z,5.80
2023-02-13T04:33:55.899Z,5.79
2023-02-13T04:36:12.330Z,5.78
2023-02-13T04:38:28.870Z,5.78
2023-02-13T04:40:45.402Z,5.78
2023-02-13T04:43:02.099Z,5.75
2023-02-13T04:45:18.861Z,5.76
2023-02-13T04:47:35.505Z,5.74
2023-02-13T04:49:52.197Z,5.74
2023-02-13T04:52:08.880Z,5.74
2023-02-13T04:54:25.583Z,5.72
2023-02-13T04:56:42.340Z,5.73
2023-02-13T04:58:59.052Z,5.74
2023-02-13T05:01:15.510Z,5.70
2023-02-13T05:03:31.984Z,5.70
2023-02-13T05:05:48.780Z,5.67
2023-02-13T05:08:05.204Z,5.68
2023-02-13T05:10:21.835Z,5.68
2023-02-13T05:12:38.316Z,5.67
2023-02-13T05:14:54.985Z,5.68
2023-02-13T05:17:11.702Z,5.68
2023-02-13T05:19:28.365Z,5.65
2023-02-13T05:21:44.977Z,5.64
2023-02-13T05:24:01.471Z,5.63
2023-02-13T05:26:17.903Z,5.60
2023-02-13T05:28:34.369Z,5.62
2023-02-13T05:30:51.103Z,5.60
2023-02-13T05:33:07.854Z,5.57
2023-02-13T05:35:24.526Z,5.56
2023-02-13T05:37:40.954Z,5.53
2023-02-13T05:39:57.230Z,5.53
2023-02-13T05:42:13.931Z,5.52
2023-02-13T05:44:30.409Z,5.50
2023-02-13T05:46:47.181Z,5.49
2023-02-13T05:49:04.896Z,5.49
2023-02-13T05:51:21.614Z,5.48
2023-02-13T05:53:38.128Z,5.48
2023-02-13T05:55:54.613Z,5.48
2023-02-13T05:58:11.042Z,5.47
2023-02-13T06:00:27.727Z,5.46
2023-02-13T06:02:44.440Z,5.46
2023-02-13T06:05:01.142Z,5.44
2023-02-13T06:07:17.620Z,5.42
2023-02-13T06:09:34.108Z,5.42
2023-02-13T06:11:50.563Z,5.42
2023-02-13T06:14:06.968Z,5.42
2023-02-13T06:16:23.448Z,5.41
2023-02-13T06:18:40.142Z,5.41
2023-02-13T06:20:56.900Z,5.39
2023-02-13T06:23:13.524Z,5.38
2023-02-13T06:25:29.867Z,5.38
2023-02-13T06:27:46.355Z,5.39
2023-02-13T06:30:03.020Z,5.37
2023-02-13T06:32:19.548Z,5.36
2023-02-13T06:34:36.305Z,5.35
2023-02-13T06:36:52.834Z,5.32
2023-02-13T06:39:09.324Z,5.31
2023-02-13T06:41:26.078Z,5.31
2023-02-13T06:43:42.477Z,5.31
2023-02-13T06:45:58.925Z,5.33
2023-02-13T06:48:15.321Z,5.32
2023-02-13T06:50:31.968Z,5.32
2023-02-13T06:52:48.404Z,5.31
2023-02-13T06:55:05.175Z,5.29
2023-02-13T06:57:21.580Z,5.30
2023-02-13T06:59:37.994Z,5.31
2023-02-13T07:01:54.393Z,5.33
2023-02-13T07:04:10.801Z,5.33
2023-02-13T07:06:27.513Z,5.32
2023-02-13T07:08:44.242Z,5.32
2023-02-13T07:11:00.711Z,5.33
2023-02-13T07:13:17.596Z,5.33
2023-02-13T07:15:34.356Z,5.35
2023-02-13T07:17:50.801Z,5.36
2023-02-13T07:20:07.424Z,5.37
2023-02-13T07:22:24.148Z,5.38
2023-02-13T07:24:40.608Z,5.37
2023-02-13T07:26:57.151Z,5.38
2023-02-13T07:29:13.612Z,5.37
2023-02-13T07:31:30.242Z,5.39
2023-02-13T07:33:46.705Z,5.41
2023-02-13T07:36:03.149Z,5.41
2023-02-13T07:38:19.791Z,5.42
2023-02-13T07:40:37.540Z,5.42
2023-02-13T07:42:54.174Z,5.45
2023-02-13T07:45:10.498Z,5.47
2023-02-13T07:47:26.835Z,5.49
2023-02-13T07:49:43.511Z,5.53
2023-02-13T07:51:59.926Z,5.52
2023-02-13T07:54:16.605Z,5.56
2023-02-13T07:56:33.079Z,5.57
2023-02-13T07:58:49.557Z,5.57
2023-02-13T08:01:05.963Z,5.61
2023-02-13T08:03:22.645Z,5.63
2023-02-13T08:05:39.296Z,5.65
2023-02-13T08:07:56.011Z,5.68
2023-02-13T08:10:12.441Z,5.70
2023-02-13T08:12:28.935Z,5.74
2023-02-13T08:14:45.405Z,5.74
2023-02-13T08:17:02.140Z,5.76
2023-02-13T08:19:18.486Z,5.79
2023-02-13T08:21:35.175Z,5.81
2023-02-13T08:23:51.921Z,5.81
2023-02-13T08:26:08.668Z,5.83
2023-02-13T08:28:25.166Z,5.83
2023-02-13T08:30:41.544Z,5.84
2023-02-13T08:32:57.890Z,5.88
2023-02-13T08:35:14.403Z,5.89
2023-02-13T08:37:31.160Z,5.98
2023-02-13T08:39:47.812Z,5.90
2023-02-13T08:42:04.418Z,5.91
2023-02-13T08:44:21.204Z,5.94
2023-02-13T08:46:37.712Z,5.92
2023-02-13T08:48:54.452Z,5.95
2023-02-13T08:51:10.900Z,5.99
2023-02-13T08:53:27.296Z,5.98
2023-02-13T08:55:43.705Z,5.98
2023-02-13T08:58:00.139Z,5.92
2023-02-13T09:00:16.465Z,5.96
2023-02-13T09:02:32.892Z,5.99
2023-02-13T09:04:49.295Z,5.99
2023-02-13T09:07:05.719Z,6.01
2023-02-13T09:09:22.196Z,6.06
2023-02-13T09:11:38.682Z,6.11
2023-02-13T09:13:55.098Z,6.14
2023-02-13T09:16:11.449Z,6.13
2023-02-13T09:18:27.909Z,6.19
2023-02-13T09:20:44.611Z,6.26
2023-02-13T09:23:01.255Z,6.27
2023-02-13T09:25:17.748Z,6.29
2023-02-13T09:27:34.142Z,6.32
2023-02-13T09:29:50.852Z,6.34
2023-02-13T09:32:08.349Z,6.36
2023-02-13T09:34:24.806Z,6.36
2023-02-13T09:36:41.239Z,6.40
2023-02-13T09:38:58.140Z,6.43
2023-02-13T09:41:16.932Z,6.48
2023-02-13T09:43:33.812Z,6.46
2023-02-13T09:45:50.234Z,6.51
2023-02-13T09:48:06.846Z,6.55
2023-02-13T09:50:23.575Z,6.61
2023-02-13T09:52:40.354Z,6.63
2023-02-13T09:54:56.731Z,6.68
2023-02-13T09:57:13.439Z,6.78
2023-02-13T09:59:29.931Z,6.90
2023-02-13T10:01:46.687Z,7.09
2023-02-13T10:04:03.179Z,7.11
2023-02-13T10:06:19.742Z,7.23
2023-02-13T10:08:36.093Z,7.30
2023-02-13T10:10:52.593Z,7.40
2023-02-13T10:13:09.120Z,7.47
2023-02-13T10:15:25.703Z,7.63
2023-02-13T10:17:42.224Z,7.82
2023-02-13T10:19:58.599Z,7.98
2023-02-13T10:22:14.963Z,8.19
2023-02-13T10:24:31.456Z,8.31
2023-02-13T10:26:47.954Z,8.43
2023-02-13T10:29:04.483Z,8.58
2023-02-13T10:31:21.355Z,8.68
2023-02-13T10:33:37.805Z,8.73
2023-02-13T10:35:54.562Z,8.85
2023-02-13T10:38:11.213Z,8.91
2023-02-13T10:40:27.696Z,9.06
2023-02-13T10:42:44.509Z,9.07
2023-02-13T10:45:00.876Z,9.32
2023-02-13T10:47:17.576Z,9.59
2023-02-13T10:49:34.273Z,9.75
2023-02-13T10:51:50.866Z,9.64
2023-02-13T10:54:07.545Z,9.67
2023-02-13T10:56:24.059Z,10.08
2023-02-13T10:58:40.754Z,10.10
2023-02-13T11:00:57.298Z,10.26
2023-02-13T11:03:13.803Z,10.40
2023-02-13T11:05:30.263Z,10.29
2023-02-13T11:07:46.786Z,10.33
2023-02-13T11:10:03.563Z,10.42
2023-02-13T11:12:20.025Z,10.50
2023-02-13T11:14:36.748Z,10.54
2023-02-13T11:16:53.040Z,10.71
2023-02-13T11:19:09.597Z,10.79
2023-02-13T11:21:26.276Z,10.70
2023-02-13T11:23:42.856Z,10.71
2023-02-13T11:25:59.542Z,10.82
2023-02-13T11:28:16.504Z,10.87
2023-02-13T11:30:33.023Z,10.94
2023-02-13T11:32:49.571Z,10.96
2023-02-13T11:35:06.112Z,10.98
2023-02-13T11:37:22.624Z,10.94
2023-02-13T11:39:39.033Z,10.98
2023-02-13T11:41:55.506Z,11.17
2023-02-13T11:44:11.883Z,11.09
2023-02-13T11:46:28.454Z,11.20
2023-02-13T11:48:45.215Z,11.30
2023-02-13T11:51:02.023Z,11.38
2023-02-13T11:53:18.513Z,11.40
2023-02-13T11:55:34.851Z,11.47
2023-02-13T11:57:51.594Z,11.42
2023-02-13T12:00:08.363Z,11.45
2023-02-13T12:02:24.951Z,11.48
2023-02-13T12:04:41.765Z,11.57
2023-02-13T12:06:58.258Z,11.39
2023-02-13T12:09:14.625Z,11.53
2023-02-13T12:11:31.154Z,11.44
2023-02-13T12:13:47.654Z,11.41
2023-02-13T12:16:04.129Z,11.46
2023-02-13T12:18:20.648Z,11.52
2023-02-13T12:20:37.063Z,11.42
2023-02-13T12:22:53.536Z,11.35
2023-02-13T12:25:11.025Z,11.40
2023-02-13T12:27:27.496Z,11.41
2023-02-13T12:29:43.931Z,11.31
2023-02-13T12:32:00.504Z,11.45
2023-02-13T12:34:17.240Z,11.46
2023-02-13T12:36:33.974Z,11.36
2023-02-13T12:38:50.444Z,11.28
2023-02-13T12:41:06.999Z,11.30
2023-02-13T12:43:23.632Z,11.32
2023-02-13T12:45:41.015Z,11.51
2023-02-13T12:47:57.803Z,11.55
2023-02-13T12:50:14.331Z,11.55
2023-02-13T12:52:30.807Z,11.43
2023-02-13T12:54:47.541Z,11.40
2023-02-13T12:57:04.285Z,11.29
2023-02-13T12:59:21.092Z,11.26
2023-02-13T13:01:37.507Z,11.30
2023-02-13T13:03:53.995Z,11.25
2023-02-13T13:06:12.503Z,11.33
2023-02-13T13:08:29.237Z,11.31
2023-02-13T13:10:45.663Z,11.25
2023-02-13T13:13:02.388Z,11.21
2023-02-13T13:15:18.766Z,11.28
2023-02-13T13:17:35.245Z,11.26
2023-02-13T13:19:51.704Z,11.15
2023-02-13T13:22:08.398Z,11.12
2023-02-13T13:24:24.818Z,11.16
2023-02-13T13:26:41.627Z,11.16
2023-02-13T13:28:57.977Z,11.21
2023-02-13T13:31:14.548Z,11.17
2023-02-13T13:33:31.104Z,11.09
2023-02-13T13:35:47.822Z,11.04
2023-02-13T13:38:04.283Z,11.04
2023-02-13T13:40:20.909Z,11.08
2023-02-13T13:42:37.615Z,11.07
2023-02-13T13:44:54.082Z,11.13
2023-02-13T13:47:10.505Z,11.12
2023-02-13T13:49:27.143Z,11.11
2023-02-13T13:51:43.652Z,11.12
2023-02-13T13:54:00.134Z,11.16
2023-02-13T13:56:16.920Z,11.12
2023-02-13T13:58:33.587Z,11.25
2023-02-13T14:00:50.305Z,11.24
2023-02-13T14:03:07.016Z,11.20
2023-02-13T14:05:23.458Z,11.13
2023-02-13T14:07:39.890Z,11.08
2023-02-13T14:09:56.610Z,11.11
2023-02-13T14:12:13.216Z,11.12
2023-02-13T14:14:30.020Z,11.14
2023-02-13T14:16:46.688Z,11.21
2023-02-13T14:19:03.430Z,11.16
2023-02-13T14:21:20.880Z,11.13
2023-02-13T14:23:37.519Z,11.12
2023-02-13T14:25:54.260Z,11.12
2023-02-13T14:28:11.011Z,11.10
2023-02-13T14:30:27.588Z,11.07
2023-02-13T14:32:44.355Z,11.07
2023-02-13T14:35:01.160Z,11.06
2023-02-13T14:37:20.147Z,11.05
2023-02-13T14:39:36.692Z,11.07
2023-02-13T14:41:53.388Z,11.06
2023-02-13T14:44:11.101Z,10.98
2023-02-13T14:46:27.759Z,10.94
2023-02-13T14:48:44.230Z,10.92
2023-02-13T14:51:01.212Z,10.92
2023-02-13T14:53:17.869Z,10.82
2023-02-13T14:55:34.540Z,10.77
2023-02-13T14:57:51.294Z,10.78
2023-02-13T15:00:07.637Z,10.79
2023-02-13T15:02:24.109Z,10.71
2023-02-13T15:04:40.945Z,10.69
2023-02-13T15:06:57.436Z,10.64
2023-02-13T15:09:14.182Z,10.58
2023-02-13T15:11:30.887Z,10.55
2023-02-13T15:13:47.625Z,10.50
2023-02-13T15:16:04.325Z,10.44
2023-02-13T15:18:20.946Z,10.40
2023-02-13T15:20:37.629Z,10.31
2023-02-13T15:22:54.134Z,10.23
2023-02-13T15:25:10.648Z,10.18
2023-02-13T15:27:27.470Z,10.13
2023-02-13T15:29:49.815Z,10.11
2023-02-13T15:32:06.864Z,10.08
2023-02-13T15:34:23.718Z,10.03
2023-02-13T15:36:40.430Z,9.98
2023-02-13T15:38:57.137Z,9.98
2023-02-13T15:41:13.811Z,9.91
2023-02-13T15:43:30.600Z,9.83
2023-02-13T15:45:47.086Z,9.77
2023-02-13T15:48:03.824Z,9.65
2023-02-13T15:50:20.323Z,9.55
2023-02-13T15:52:36.833Z,9.42
2023-02-13T15:54:53.509Z,9.34
2023-02-13T15:57:10.033Z,9.25
2023-02-13T15:59:26.743Z,9.13
2023-02-13T16:01:43.574Z,9.05
2023-02-13T16:04:00.370Z,8.94
2023-02-13T16:06:16.866Z,8.81
2023-02-13T16:08:33.652Z,8.73
2023-02-13T16:10:50.403Z,8.54
2023-02-13T16:13:06.916Z,8.45
2023-02-13T16:15:23.468Z,8.33
2023-02-13T16:17:39.870Z,8.24
2023-02-13T16:19:56.656Z,8.15
2023-02-13T16:22:13.017Z,8.04
2023-02-13T16:24:29.457Z,7.90
2023-02-13T16:26:45.964Z,7.83
2023-02-13T16:29:02.758Z,7.74
2023-02-13T16:31:19.634Z,7.63
2023-02-13T16:33:36.484Z,7.48
2023-02-13T16:35:53.015Z,7.42
2023-02-13T16:38:09.611Z,7.33
2023-02-13T16:40:26.113Z,7.23
2023-02-13T16:42:42.555Z,7.15
2023-02-13T16:44:59.313Z,7.05
2023-02-13T16:47:15.708Z,7.00
2023-02-13T16:49:32.541Z,6.91
2023-02-13T16:51:49.026Z,6.80
2023-02-13T16:54:05.789Z,6.71
2023-02-13T16:56:22.315Z,6.64
2023-02-13T16:58:38.783Z,6.56
2023-02-13T17:00:55.552Z,6.47
2023-02-13T17:03:12.343Z,6.39
2023-02-13T17:05:28.798Z,6.33
2023-02-13T17:07:45.630Z,6.24
2023-02-13T17:10:02.489Z,6.16
2023-02-13T17:12:19.333Z,6.09
2023-02-13T17:14:35.783Z,6.01
2023-02-13T17:16:52.506Z,5.96
2023-02-13T17:19:09.188Z,5.89
2023-02-13T17:21:25.974Z,5.83
2023-02-13T17:23:42.724Z,5.75
2023-02-13T17:25:59.091Z,5.66
2023-02-13T17:28:15.797Z,5.61
2023-02-13T17:30:32.552Z,5.53
2023-02-13T17:32:49.274Z,5.45
2023-02-13T17:35:05.753Z,5.45
2023-02-13T17:37:22.405Z,5.38
2023-02-13T17:39:38.817Z,5.30
2023-02-13T17:41:55.495Z,5.21
2023-02-13T17:44:11.966Z,5.15
2023-02-13T17:46:28.479Z,5.09
2023-02-13T17:48:44.954Z,5.03
2023-02-13T17:51:01.718Z,4.99
2023-02-13T17:53:18.578Z,4.91
2023-02-13T17:55:35.137Z,4.84
2023-02-13T17:57:51.933Z,4.76
2023-02-13T18:00:08.663Z,4.72
2023-02-13T18:02:25.255Z,4.69
2023-02-13T18:04:41.757Z,4.63
2023-02-13T18:06:58.329Z,4.57
2023-02-13T18:09:15.049Z,4.51
2023-02-13T18:11:31.819Z,4.50
2023-02-13T18:13:48.533Z,4.40
2023-02-13T18:16:05.119Z,4.35
2023-02-13T18:18:21.699Z,4.30
2023-02-13T18:20:38.072Z,4.29
2023-02-13T18:22:55.967Z,4.24
2023-02-13T18:25:12.771Z,4.18
2023-02-13T18:27:29.289Z,4.10
2023-02-13T18:29:46.123Z,4.03
2023-02-13T18:32:02.773Z,3.99
2023-02-13T18:34:19.207Z,3.91
2023-02-13T18:36:36.804Z,3.87
2023-02-13T18:38:53.162Z,3.84
2023-02-13T18:41:10.253Z,3.79
2023-02-13T18:43:26.968Z,3.75
2023-02-13T18:45:43.647Z,3.71
2023-02-13T18:48:00.424Z,3.67
2023-02-13T18:50:17.097Z,3.62
2023-02-13T18:52:33.401Z,3.61
2023-02-13T18:54:49.878Z,3.56
2023-02-13T18:57:06.343Z,3.52
2023-02-13T18:59:23.049Z,3.46
2023-02-13T19:01:39.503Z,3.43
2023-02-13T19:03:55.996Z,3.39
2023-02-13T19:06:12.514Z,3.35
2023-02-13T19:08:28.992Z,3.32
2023-02-13T19:10:45.726Z,3.26
2023-02-13T19:13:02.487Z,3.23
2023-02-13T19:15:18.848Z,3.18
2023-02-13T19:17:35.182Z,3.14
2023-02-13T19:19:51.634Z,3.08
2023-02-13T19:22:08.171Z,3.05
2023-02-13T19:24:24.875Z,3.00
2023-02-13T19:26:41.510Z,2.96
2023-02-13T19:28:57.977Z,2.94
2023-02-13T19:31:14.576Z,2.90
2023-02-13T19:33:31.358Z,2.84
2023-02-13T19:35:48.045Z,2.78
2023-02-13T19:38:04.410Z,2.75
2023-02-13T19:40:21.234Z,2.72
2023-02-13T19:42:40.035Z,2.68
2023-02-13T19:44:56.772Z,2.65
2023-02-13T19:47:13.457Z,2.61
2023-02-13T19:49:29.929Z,2.60
2023-02-13T19:51:46.175Z,2.58
2023-02-13T19:54:02.880Z,2.54
2023-02-13T19:56:19.363Z,2.49
2023-02-13T19:58:35.932Z,2.45
2023-02-13T20:00:52.384Z,2.41
2023-02-13T20:03:08.854Z,2.40
2023-02-13T20:05:25.658Z,2.38
2023-02-13T20:07:43.247Z,2.32
2023-02-13T20:09:59.598Z,2.28
2023-02-13T20:12:18.458Z,2.25
2023-02-13T20:14:35.126Z,2.22
2023-02-13T20:16:51.620Z,2.21
2023-02-13T20:19:08.095Z,2.20
2023-02-13T20:21:24.785Z,2.16
2023-02-13T20:23:41.230Z,2.13
2023-02-13T20:25:57.775Z,2.10
2023-02-13T20:28:14.141Z,2.08
2023-02-13T20:30:30.706Z,2.03
2023-02-13T20:32:47.291Z,2.01
2023-02-13T20:35:04.012Z,1.97
2023-02-13T20:37:21.727Z,1.94
2023-02-13T20:39:40.556Z,1.86
2023-02-13T20:41:58.059Z,1.84
2023-02-13T20:44:14.862Z,1.78
2023-02-13T20:46:31.185Z,1.76
2023-02-13T20:48:47.986Z,1.77
2023-02-13T20:51:04.537Z,1.75
2023-02-13T20:53:21.292Z,1.75
2023-02-13T20:55:37.718Z,1.71
2023-02-13T20:57:54.098Z,1.70
2023-02-13T21:00:10.555Z,1.67
2023-02-13T21:02:27.394Z,1.65
2023-02-13T21:04:43.780Z,1.61
2023-02-13T21:07:00.330Z,1.56
2023-02-13T21:09:16.827Z,1.51
2023-02-13T21:11:33.474Z,1.48
2023-02-13T21:13:49.958Z,1.46
2023-02-13T21:16:06.719Z,1.45
2023-02-13T21:18:23.279Z,1.41
2023-02-13T21:20:40.056Z,1.36
2023-02-13T21:22:56.756Z,1.34
2023-02-13T21:25:13.728Z,1.31
2023-02-13T21:27:30.233Z,1.29
2023-02-13T21:29:47.005Z,1.27
2023-02-13T21:32:03.868Z,1.27
2023-02-13T21:34:20.639Z,1.25
2023-02-13T21:36:37.432Z,1.21
2023-02-13T21:38:55.227Z,1.18
2023-02-13T21:41:11.921Z,1.14
2023-02-13T21:43:28.699Z,1.12
2023-02-13T21:45:45.597Z,1.09
2023-02-13T21:48:02.170Z,1.08
2023-02-13T21:50:18.660Z,1.05
2023-02-13T21:52:34.932Z,1.04
2023-02-13T21:54:51.348Z,0.99
2023-02-13T21:57:07.803Z,0.98
2023-02-13T21:59:25.652Z,0.96
2023-02-13T22:01:42.397Z,0.93
2023-02-13T22:04:00.819Z,0.88
2023-02-13T22:06:18.007Z,0.86
2023-02-13T22:08:34.722Z,0.86
2023-02-13T22:10:51.153Z,0.83
2023-02-13T22:13:10.213Z,0.80
2023-02-13T22:15:26.629Z,0.78
2023-02-13T22:17:42.990Z,0.76
2023-02-13T22:20:00.715Z,0.75
2023-02-13T22:22:17.395Z,0.72
2023-02-13T22:24:34.172Z,0.71
2023-02-13T22:26:50.889Z,0.68
2023-02-13T22:29:07.336Z,0.64
2023-02-13T22:31:25.794Z,0.62
2023-02-13T22:33:47.449Z,0.59
2023-02-13T22:36:06.562Z,0.57
2023-02-13T22:38:23.044Z,0.55
2023-02-13T22:40:39.741Z,0.52
2023-02-13T22:42:56.887Z,0.49
2023-02-13T22:45:13.464Z,0.48
2023-02-13T22:47:30.076Z,0.47
2023-02-13T22:49:46.803Z,0.47
2023-02-13T22:52:03.525Z,0.45
2023-02-13T22:54:19.977Z,0.43
2023-02-13T22:56:36.390Z,0.39
2023-02-13T22:58:52.776Z,0.38
2023-02-13T23:01:09.236Z,0.37
2023-02-13T23:03:25.978Z,0.36
2023-02-13T23:05:42.626Z,0.31
2023-02-13T23:07:59.289Z,0.29
2023-02-13T23:10:15.746Z,0.28
2023-02-13T23:12:32.195Z,0.30
2023-02-13T23:14:48.632Z,0.29
2023-02-13T23:17:05.311Z,0.29
2023-02-13T23:19:21.847Z,0.28
2023-02-13T23:21:38.337Z,0.24
2023-02-13T23:23:55.076Z,0.21
2023-02-13T23:26:11.578Z,0.19
2023-02-13T23:28:28.366Z,0.18
2023-02-13T23:30:45.204Z,0.15
2023-02-13T23:33:01.906Z,0.11
2023-02-13T23:35:18.322Z,0.09
2023-02-13T23:37:35.045Z,0.07
2023-02-13T23:39:51.498Z,0.03
2023-02-13T23:42:07.998Z,0.01
2023-02-13T23:44:24.636Z,0.02
2023-02-13T23:46:41.101Z,0.03
2023-02-13T23:48:57.650Z,0.06
2023-02-13T23:51:14.086Z,0.04
2023-02-13T23:53:30.772Z,-0.01
2023-02-13T23:55:47.497Z,-0.03
2023-02-13T23:58:03.959Z,-0.07
